Terminal Aerodrome Forecast
Issued by NWS

Home | Current Version | Previous Version | Text Only | Print | Product List | Glossary On
Versions: 1 2 3 4 5 6 7 8 9 10 11 12
400
FTUS46 KMTR 170533
TAFSNS
TAF
KSNS 170533Z 1706/1806 VRB04KT P6SM FEW120
     FM171800 30005KT P6SM SCT250
     FM172100 29010KT P6SM SCT250
     FM180300 31005KT P6SM FEW250=

USA.gov is the U.S. government's official web portal to all federal, state and local government web resources and services.